Time;durP1;ratioP1;P1;durP2;ratioP2;P2;SDS_P1;SDS_P2;PMS_P1;PMS_P2;Temp;Humidity;BMP_temperature;BMP_pressure;BME280_temperature;BME280_humidity;BME280_pressure;Samples;Min_cycle;Max_cycle;Signal;HPM_P1;HPM_P2
2022/04/08 00:01:26;;;;;;;;;1.00;0.00;;;;;11.60;47.26;99704.19;5035851;28;45427;-64
2022/04/08 00:03:53;;;;;;;;;0.00;0.00;;;;;11.49;46.80;99683.69;5035820;28;45465;-64
2022/04/08 00:06:19;;;;;;;;;0.00;0.00;;;;;11.45;46.50;99679.53;5035576;28;45582;-64
2022/04/08 00:08:45;;;;;;;;;0.00;0.00;;;;;11.53;47.15;99697.56;5035576;28;46292;-63
2022/04/08 00:11:11;;;;;;;;;0.00;0.00;;;;;11.58;47.41;99700.78;5034053;28;45487;-64
2022/04/08 00:13:36;;;;;;;;;0.00;0.00;;;;;11.56;47.59;99682.44;5035513;28;45438;-63
2022/04/08 00:16:01;;;;;;;;;0.00;0.00;;;;;11.60;47.58;99705.03;5035588;28;45438;-64
2022/04/08 00:18:29;;;;;;;;;0.00;0.00;;;;;11.61;46.46;99704.13;5035466;28;45416;-63
2022/04/08 00:20:54;;;;;;;;;0.33;0.00;;;;;11.51;47.03;99673.94;5035429;28;45507;-64
2022/04/08 00:23:19;;;;;;;;;0.00;0.00;;;;;11.57;47.06;99686.75;5035621;28;45466;-64
2022/04/08 00:25:47;;;;;;;;;0.33;0.33;;;;;11.53;47.87;99679.97;5035509;28;45379;-63
2022/04/08 00:28:13;;;;;;;;;1.00;0.00;;;;;11.48;47.79;99682.00;5035145;28;46808;-65
2022/04/08 00:30:38;;;;;;;;;0.00;0.00;;;;;11.49;47.84;99674.00;5035243;28;45408;-64
2022/04/08 00:33:04;;;;;;;;;0.00;0.00;;;;;11.50;47.13;99674.88;5035357;28;45918;-64
2022/04/08 00:35:29;;;;;;;;;1.67;0.00;;;;;11.51;47.18;99684.47;5035172;28;45664;-64
2022/04/08 00:37:56;;;;;;;;;1.00;0.00;;;;;11.47;47.69;99681.16;5035297;28;46169;-65
2022/04/08 00:40:22;;;;;;;;;2.00;0.00;;;;;11.50;47.81;99680.16;5035210;28;45589;-65
2022/04/08 00:42:47;;;;;;;;;0.33;0.33;;;;;11.55;47.84;99671.97;5035290;28;45435;-64
2022/04/08 00:45:13;;;;;;;;;0.00;0.00;;;;;11.57;48.44;99675.38;5035412;28;45375;-64
2022/04/08 00:47:41;;;;;;;;;0.00;0.00;;;;;11.57;48.15;99667.50;5034849;28;45480;-64
2022/04/08 00:50:10;;;;;;;;;2.00;0.33;;;;;11.53;48.02;99674.72;5035001;28;45407;-64
2022/04/08 00:52:37;;;;;;;;;2.00;1.00;;;;;11.57;47.85;99670.97;5033801;28;45462;-63
2022/04/08 00:55:04;;;;;;;;;1.00;0.00;;;;;11.62;48.89;99665.47;5034970;28;45574;-63
2022/04/08 00:57:31;;;;;;;;;1.00;1.00;;;;;11.63;48.60;99668.03;5034528;28;45546;-64
2022/04/08 00:59:57;;;;;;;;;0.00;0.00;;;;;11.67;47.85;99672.16;5033510;28;45423;-64
2022/04/08 01:02:25;;;;;;;;;2.00;0.00;;;;;11.67;47.92;99652.88;5034296;28;45460;-64
2022/04/08 01:04:50;;;;;;;;;0.33;0.33;;;;;11.68;48.69;99665.97;5038300;28;45621;-64
2022/04/08 01:07:15;;;;;;;;;4.00;1.00;;;;;11.71;48.89;99657.91;5038135;28;45400;-65
2022/04/08 01:09:42;;;;;;;;;1.33;0.00;;;;;11.73;47.76;99647.28;5038108;28;45532;-63
2022/04/08 01:12:11;;;;;;;;;0.00;0.00;;;;;11.77;48.36;99650.56;5038504;28;45542;-64
2022/04/08 01:14:38;;;;;;;;;0.67;0.33;;;;;11.72;48.20;99645.59;5038285;28;45699;-63
2022/04/08 01:17:04;;;;;;;;;0.00;0.00;;;;;11.76;47.72;99655.00;5038106;28;45452;-64
2022/04/08 01:19:29;;;;;;;;;3.00;1.00;;;;;11.75;47.99;99647.19;5038024;28;45482;-64
2022/04/08 01:21:55;;;;;;;;;0.00;0.00;;;;;11.71;48.23;99641.22;5038362;28;45372;-63
2022/04/08 01:24:23;;;;;;;;;0.00;0.00;;;;;11.75;48.82;99637.50;5036870;28;45357;-64
2022/04/08 01:26:51;;;;;;;;;1.67;1.00;;;;;11.75;47.94;99631.41;5038053;28;45402;-65
2022/04/08 01:29:16;;;;;;;;;0.00;0.00;;;;;11.78;47.79;99642.59;5038078;28;45435;-65
2022/04/08 01:31:44;;;;;;;;;0.00;0.00;;;;;11.80;48.75;99645.16;5037813;28;45362;-63
2022/04/08 01:34:09;;;;;;;;;3.00;1.00;;;;;11.77;48.11;99632.13;5037826;28;45403;-63
2022/04/08 01:36:36;;;;;;;;;1.00;1.00;;;;;11.70;48.39;99616.69;5037802;28;46282;-64
2022/04/08 01:39:01;;;;;;;;;0.00;0.00;;;;;11.83;48.53;99631.81;5038097;28;45565;-64
2022/04/08 01:41:29;;;;;;;;;0.00;0.00;;;;;11.76;47.78;99614.66;5038041;28;45429;-64
2022/04/08 01:43:55;;;;;;;;;2.00;1.00;;;;;11.85;48.09;99632.59;5037902;28;45374;-65
2022/04/08 01:46:20;;;;;;;;;0.00;0.00;;;;;11.85;48.44;99622.91;5037635;28;45406;-64
2022/04/08 01:48:46;;;;;;;;;2.00;0.33;;;;;11.85;47.95;99625.53;5037825;28;45463;-64
2022/04/08 01:51:11;;;;;;;;;0.00;0.00;;;;;11.88;48.07;99633.28;5037919;28;45328;-65
2022/04/08 01:53:37;;;;;;;;;2.00;1.00;;;;;11.80;47.85;99616.19;5037777;28;45422;-64
2022/04/08 01:56:02;;;;;;;;;0.00;0.00;;;;;11.88;48.87;99622.75;5036141;28;45457;-64
2022/04/08 01:58:28;;;;;;;;;0.00;0.00;;;;;11.88;47.93;99622.75;5037551;28;45507;-64
2022/04/08 02:00:53;;;;;;;;;0.33;0.33;;;;;11.88;48.26;99620.13;5037619;28;45427;-63
2022/04/08 02:03:20;;;;;;;;;0.00;0.00;;;;;11.85;48.58;99612.34;5037755;28;45553;-64
2022/04/08 02:05:46;;;;;;;;;0.00;0.00;;;;;11.82;48.45;99611.66;5037385;28;46164;-64
2022/04/08 02:08:11;;;;;;;;;0.33;0.33;;;;;11.80;47.89;99603.84;5037075;28;45441;-64
2022/04/08 02:10:37;;;;;;;;;0.00;0.00;;;;;11.90;48.07;99620.00;5037429;28;45403;-64
2022/04/08 02:13:02;;;;;;;;;1.00;1.00;;;;;11.91;48.27;99619.09;5037399;28;45497;-63
2022/04/08 02:15:32;;;;;;;;;0.67;0.67;;;;;11.90;48.74;99606.84;5036899;28;45357;-64
2022/04/08 02:17:57;;;;;;;;;1.00;1.00;;;;;11.88;48.30;99611.38;5035701;28;45667;-64
2022/04/08 02:20:24;;;;;;;;;0.00;0.00;;;;;11.90;48.82;99606.84;5037416;28;45514;-63
2022/04/08 02:22:50;;;;;;;;;0.00;0.00;;;;;11.92;48.71;99607.59;5037453;28;45454;-67
2022/04/08 02:25:16;;;;;;;;;0.00;0.00;;;;;11.87;48.96;99591.22;5033020;28;46185;-64
2022/04/08 02:27:41;;;;;;;;;2.00;0.00;;;;;11.92;49.17;99597.91;5033893;28;45595;-64
2022/04/08 02:30:08;;;;;;;;;0.00;0.00;;;;;11.92;48.48;99594.44;5037097;28;45459;-64
2022/04/08 02:32:33;;;;;;;;;0.67;0.67;;;;;11.96;48.17;99595.13;5037240;28;45427;-63
2022/04/08 02:34:59;;;;;;;;;0.67;0.00;;;;;11.93;48.74;99589.09;5036716;28;46098;-63
2022/04/08 02:37:24;;;;;;;;;0.00;0.00;;;;;11.94;48.57;99595.19;5037048;28;45550;-64
2022/04/08 02:39:52;;;;;;;;;0.00;0.00;;;;;11.86;49.10;99586.88;5035763;28;45402;-64
2022/04/08 02:42:18;;;;;;;;;2.33;0.00;;;;;11.84;49.14;99584.28;5037283;28;45376;-65
2022/04/08 02:44:43;;;;;;;;;2.00;0.00;;;;;11.82;49.73;99582.69;5036846;28;45531;-64
2022/04/08 02:47:09;;;;;;;;;0.00;0.00;;;;;11.82;49.64;99582.69;5037021;28;45376;-65
2022/04/08 02:49:34;;;;;;;;;1.00;1.00;;;;;11.80;49.72;99568.78;5036934;28;45373;-64
2022/04/08 02:52:00;;;;;;;;;0.33;0.33;;;;;11.82;49.91;99583.56;5035624;28;45446;-65
2022/04/08 02:54:26;;;;;;;;;1.00;1.00;;;;;11.81;49.13;99575.72;5036728;28;45488;-65
2022/04/08 02:56:51;;;;;;;;;0.67;0.00;;;;;11.78;50.25;99566.22;5036801;28;45371;-64
2022/04/08 02:59:17;;;;;;;;;1.00;1.00;;;;;11.82;49.45;99575.66;5036934;28;45392;-64
2022/04/08 03:01:42;;;;;;;;;1.00;1.00;;;;;11.81;49.85;99570.47;5036783;28;45357;-64
2022/04/08 03:04:08;;;;;;;;;0.33;0.33;;;;;11.78;50.35;99565.38;5036643;28;46940;-64
2022/04/08 03:06:34;;;;;;;;;0.00;0.00;;;;;11.82;49.89;99570.38;5036401;28;45397;-63
2022/04/08 03:09:00;;;;;;;;;1.00;0.33;;;;;11.82;49.54;99564.25;5036527;28;45430;-63
2022/04/08 03:11:26;;;;;;;;;0.33;0.33;;;;;11.83;50.47;99561.53;5036671;28;45650;-62
2022/04/08 03:13:51;;;;;;;;;0.00;0.00;;;;;11.80;49.75;99564.34;5036221;28;46383;-63
2022/04/08 03:16:16;;;;;;;;;0.33;0.33;;;;;11.82;49.88;99559.84;5036221;28;45408;-64
2022/04/08 03:18:42;;;;;;;;;1.33;1.33;;;;;11.83;50.17;99558.06;5036642;28;45479;-64
2022/04/08 03:21:07;;;;;;;;;0.00;0.00;;;;;11.88;49.80;99556.03;5036507;28;45365;-64
2022/04/08 03:23:32;;;;;;;;;0.00;0.00;;;;;11.91;49.79;99553.22;5036140;28;45393;-65
2022/04/08 03:26:04;;;;;;;;;1.00;1.00;;;;;11.88;49.87;99545.50;5035846;28;45609;-64
2022/04/08 03:28:31;;;;;;;;;0.00;0.00;;;;;11.93;50.09;99548.72;5035428;28;45432;-63
2022/04/08 03:30:57;;;;;;;;;0.33;0.00;;;;;11.98;50.73;99553.69;5035983;28;45643;-64
2022/04/08 03:33:22;;;;;;;;;1.33;0.00;;;;;11.95;51.15;99541.56;5036110;28;45893;-64
2022/04/08 03:35:48;;;;;;;;;2.00;0.00;;;;;12.02;51.00;99552.59;5036138;28;45686;-63
2022/04/08 03:38:13;;;;;;;;;1.00;1.00;;;;;12.00;51.36;99544.78;5036197;28;45414;-63
2022/04/08 03:40:38;;;;;;;;;0.00;0.00;;;;;11.99;51.64;99551.00;5035981;28;50995;-64
2022/04/08 03:43:06;;;;;;;;;1.00;0.00;;;;;11.85;52.97;99535.13;5036053;28;46098;-64
2022/04/08 03:45:31;;;;;;;;;0.00;0.00;;;;;11.88;53.55;99542.88;5035667;28;45450;-63
2022/04/08 03:47:57;;;;;;;;;1.00;1.00;;;;;11.85;53.78;99535.13;5034847;28;45393;-64
2022/04/08 03:50:23;;;;;;;;;1.00;1.00;;;;;11.81;54.04;99528.31;5036120;28;45545;-64
2022/04/08 03:52:48;;;;;;;;;1.00;1.00;;;;;11.81;54.68;99529.16;5035747;28;45320;-64
2022/04/08 03:55:14;;;;;;;;;3.00;1.00;;;;;11.79;54.05;99511.72;5035857;28;45311;-64
2022/04/08 03:57:39;;;;;;;;;1.00;1.00;;;;;11.82;54.46;99507.16;5035850;28;45395;-64
2022/04/08 04:00:07;;;;;;;;;0.33;0.33;;;;;11.81;55.35;99499.31;5036045;28;45354;-63
2022/04/08 04:02:33;;;;;;;;;2.00;1.00;;;;;11.80;54.34;99493.22;5035876;28;45661;-64
2022/04/08 04:04:59;;;;;;;;;2.00;0.33;;;;;11.82;54.71;99488.72;5035575;28;45481;-64
2022/04/08 04:07:26;;;;;;;;;2.33;0.67;;;;;11.77;55.35;99477.59;5035675;28;45488;-64
2022/04/08 04:09:52;;;;;;;;;1.00;0.00;;;;;11.81;55.41;99480.88;5034529;28;45448;-64
2022/04/08 04:12:17;;;;;;;;;2.00;1.00;;;;;11.83;55.47;99476.38;5035268;28;46582;-64
2022/04/08 04:14:43;;;;;;;;;0.00;0.00;;;;;11.83;55.38;99463.22;5035682;28;45500;-64
2022/04/08 04:17:08;;;;;;;;;0.00;0.00;;;;;11.85;56.01;99458.72;5035467;28;46120;-64
2022/04/08 04:19:34;;;;;;;;;0.00;0.00;;;;;11.83;56.28;99439.50;5035854;28;45540;-64
2022/04/08 04:21:59;;;;;;;;;1.67;1.00;;;;;11.87;56.06;99439.25;5035475;28;45491;-64
2022/04/08 04:24:24;;;;;;;;;1.00;1.00;;;;;11.86;55.35;99434.09;5035385;28;45361;-64
2022/04/08 04:26:50;;;;;;;;;2.00;0.67;;;;;11.88;55.85;99432.22;5035444;28;45999;-64
2022/04/08 04:29:15;;;;;;;;;2.67;1.00;;;;;11.90;55.96;99428.56;5035565;28;45447;-62
2022/04/08 04:31:41;;;;;;;;;2.67;0.00;;;;;11.92;55.53;99425.81;5035353;28;46022;-65
2022/04/08 04:34:06;;;;;;;;;0.00;0.00;;;;;11.91;55.69;99413.59;5035491;28;45470;-64
2022/04/08 04:36:31;;;;;;;;;0.33;0.33;;;;;11.91;55.52;99414.41;5035527;28;45502;-64
2022/04/08 04:38:57;;;;;;;;;2.00;0.33;;;;;11.92;55.42;99410.84;5035484;28;45645;-65
2022/04/08 04:41:22;;;;;;;;;0.00;0.00;;;;;11.87;56.01;99402.34;5035252;28;46704;-63
2022/04/08 04:43:47;;;;;;;;;2.00;0.00;;;;;11.90;56.43;99403.97;5035390;28;45421;-64
2022/04/08 04:46:13;;;;;;;;;2.00;0.33;;;;;11.88;55.95;99401.44;5035383;28;45641;-66
2022/04/08 04:48:38;;;;;;;;;1.00;1.00;;;;;11.85;56.32;99398.13;5035276;28;45458;-64
2022/04/08 04:51:03;;;;;;;;;1.67;0.00;;;;;11.82;56.38;99385.09;5034954;28;46166;-64
2022/04/08 04:53:29;;;;;;;;;1.00;1.00;;;;;11.78;56.43;99381.81;5034996;28;45482;-64
2022/04/08 04:55:54;;;;;;;;;2.33;1.00;;;;;11.72;55.63;99363.75;5035171;28;45692;-64
2022/04/08 04:58:20;;;;;;;;;2.00;1.00;;;;;11.78;56.52;99363.38;5034884;28;45423;-64
2022/04/08 05:00:45;;;;;;;;;1.00;1.00;;;;;11.80;56.83;99360.66;5034892;28;45643;-64
2022/04/08 05:03:12;;;;;;;;;2.00;1.33;;;;;11.75;56.89;99353.03;5034861;28;45436;-64
2022/04/08 05:05:38;;;;;;;;;1.33;1.00;;;;;11.72;55.82;99348.78;5035050;28;45423;-64
2022/04/08 05:08:04;;;;;;;;;0.00;0.00;;;;;11.64;56.24;99335.25;5033399;28;45475;-64
2022/04/08 05:10:33;;;;;;;;;0.00;0.00;;;;;11.67;55.93;99344.75;5033253;28;47719;-64
2022/04/08 05:12:59;;;;;;;;;0.67;0.67;;;;;11.68;56.33;99328.81;5034800;28;45427;-64
2022/04/08 05:15:26;;;;;;;;;1.00;1.00;;;;;11.71;57.37;99318.13;5034738;28;45485;-65
2022/04/08 05:17:51;;;;;;;;;1.00;1.00;;;;;11.66;56.04;99307.03;5034617;28;45460;-63
2022/04/08 05:20:17;;;;;;;;;0.00;0.00;;;;;11.67;56.15;99298.19;5034246;28;46207;-64
2022/04/08 05:22:42;;;;;;;;;1.00;1.00;;;;;11.70;56.82;99302.41;5034111;28;53611;-64
2022/04/08 05:25:08;;;;;;;;;2.00;0.67;;;;;11.69;56.80;99296.31;5034479;28;45485;-64
2022/04/08 05:27:41;;;;;;;;;1.33;0.00;;;;;11.66;57.53;99300.88;5033071;28;45617;-64
2022/04/08 05:30:08;;;;;;;;;1.00;0.67;;;;;11.64;56.92;99301.00;5034020;28;45514;-64
2022/04/08 05:32:34;;;;;;;;;0.33;0.33;;;;;11.66;57.51;99295.63;5034239;28;45403;-64
2022/04/08 05:35:00;;;;;;;;;1.00;1.00;;;;;11.66;57.73;99285.97;5034135;28;45422;-64
2022/04/08 05:37:25;;;;;;;;;3.67;1.00;;;;;11.66;56.97;99285.97;5034126;28;45576;-65
2022/04/08 05:39:53;;;;;;;;;1.00;1.00;;;;;11.65;57.47;99276.34;5033983;28;45459;-63
2022/04/08 05:42:18;;;;;;;;;1.33;1.33;;;;;11.61;57.23;99263.47;5034038;28;45461;-64
2022/04/08 05:44:44;;;;;;;;;1.33;1.00;;;;;11.65;57.57;99265.81;5034412;28;45628;-64
2022/04/08 05:47:09;;;;;;;;;0.00;0.00;;;;;11.58;57.40;99259.25;5034178;28;45462;-65
2022/04/08 05:49:35;;;;;;;;;1.00;1.00;;;;;11.60;56.81;99249.44;5034105;28;46841;-64
2022/04/08 05:52:00;;;;;;;;;1.67;1.67;;;;;11.65;57.61;99257.91;5037698;28;45455;-64
2022/04/08 05:54:25;;;;;;;;;1.00;1.00;;;;;11.65;57.49;99255.28;5037571;28;45683;-64
2022/04/08 05:56:51;;;;;;;;;2.00;1.00;;;;;11.65;57.25;99239.47;5037543;28;45585;-65
2022/04/08 05:59:16;;;;;;;;;2.00;2.00;;;;;11.65;57.37;99244.75;5037143;28;56691;-65
2022/04/08 06:01:41;;;;;;;;;1.00;1.00;;;;;11.68;57.63;99235.81;5037236;28;45375;-65
2022/04/08 06:04:07;;;;;;;;;1.33;1.33;;;;;11.65;57.27;99228.09;5037822;28;45447;-64
2022/04/08 06:06:32;;;;;;;;;0.00;0.00;;;;;11.63;57.63;99222.94;5037512;28;45528;-64
2022/04/08 06:08:57;;;;;;;;;1.00;1.00;;;;;11.65;58.67;99222.84;5037559;28;46052;-64
2022/04/08 06:11:22;;;;;;;;;1.00;1.00;;;;;11.55;57.50;99198.00;5037487;28;45450;-64
2022/04/08 06:13:48;;;;;;;;;2.00;2.00;;;;;11.62;58.15;99201.97;5037826;28;45395;-64
2022/04/08 06:16:13;;;;;;;;;2.67;1.00;;;;;11.60;57.96;99195.94;5037465;28;45466;-64
2022/04/08 06:18:39;;;;;;;;;1.33;1.33;;;;;11.56;57.70;99190.03;5037362;28;45433;-64
2022/04/08 06:21:04;;;;;;;;;1.00;1.00;;;;;11.54;58.29;99184.00;5037523;28;45415;-64
2022/04/08 06:23:30;;;;;;;;;1.00;1.00;;;;;11.47;57.81;99169.50;5035965;28;45439;-64
2022/04/08 06:25:55;;;;;;;;;1.00;1.00;;;;;11.49;57.62;99168.47;5037446;28;45372;-64
2022/04/08 06:28:20;;;;;;;;;1.00;1.00;;;;;11.47;57.75;99159.00;5037154;28;46587;-65
2022/04/08 06:30:46;;;;;;;;;2.33;2.00;;;;;11.43;58.31;99150.44;5037281;28;45416;-64
2022/04/08 06:33:11;;;;;;;;;3.00;3.00;;;;;11.36;58.46;99143.84;5037251;28;45437;-67
2022/04/08 06:35:37;;;;;;;;;2.33;2.00;;;;;11.40;59.18;99144.53;5037115;28;45367;-64
2022/04/08 06:38:05;;;;;;;;;4.67;4.00;;;;;11.40;58.73;99141.91;5037071;28;45557;-64
2022/04/08 06:40:32;;;;;;;;;2.00;2.00;;;;;11.40;58.44;99136.63;5036604;28;45467;-64
2022/04/08 06:42:59;;;;;;;;;3.00;3.00;;;;;11.40;59.56;99134.00;5036888;28;45470;-64
2022/04/08 06:45:26;;;;;;;;;1.00;1.00;;;;;11.40;58.93;99139.28;5037026;28;45379;-64
2022/04/08 06:47:52;;;;;;;;;1.33;1.33;;;;;11.44;59.39;99140.75;5036625;28;45438;-64
2022/04/08 06:50:18;;;;;;;;;5.33;2.00;;;;;11.43;59.05;99134.66;5036763;28;45516;-63
2022/04/08 06:52:44;;;;;;;;;2.67;2.67;;;;;11.37;59.19;99134.19;5036854;28;45458;-64
2022/04/08 06:55:10;;;;;;;;;4.00;2.33;;;;;11.38;59.83;99131.44;5036713;28;45688;-65
2022/04/08 06:57:36;;;;;;;;;4.33;4.00;;;;;11.38;60.20;99138.50;5036440;28;45972;-64
2022/04/08 07:00:07;;;;;;;;;4.00;3.00;;;;;11.36;59.93;99135.13;5035994;28;45532;-64
2022/04/08 07:02:33;;;;;;;;;3.00;3.00;;;;;11.35;59.75;99136.06;5036165;28;45301;-64
2022/04/08 07:04:58;;;;;;;;;1.00;1.00;;;;;11.33;60.02;99137.94;5036591;28;45669;-64
2022/04/08 07:07:45;;;;;;;;;2.00;2.00;;;;;11.25;59.98;99127.88;5036305;28;46072;-63
2022/04/08 07:10:11;;;;;;;;;4.00;2.00;;;;;11.27;59.62;99136.53;5036372;28;45473;-64
2022/04/08 07:12:37;;;;;;;;;1.00;1.00;;;;;11.27;59.88;99141.81;5036615;28;45444;-65
2022/04/08 07:15:04;;;;;;;;;2.00;2.00;;;;;11.23;59.34;99135.03;5035497;28;45406;-64
2022/04/08 07:17:31;;;;;;;;;3.00;3.00;;;;;11.23;60.59;99124.50;5035552;28;45410;-64
2022/04/08 07:19:57;;;;;;;;;2.00;2.00;;;;;11.19;60.41;99118.59;5036330;28;46122;-63
2022/04/08 07:22:23;;;;;;;;;4.67;4.00;;;;;11.20;60.51;99109.78;5036261;28;45547;-64
2022/04/08 07:24:49;;;;;;;;;4.00;4.00;;;;;11.20;59.99;99099.25;5036309;28;45573;-64
2022/04/08 07:27:15;;;;;;;;;3.00;3.00;;;;;11.19;60.93;99084.38;5036105;28;46338;-64
2022/04/08 07:29:41;;;;;;;;;3.00;3.00;;;;;11.22;60.43;99088.59;5036021;28;45480;-63
2022/04/08 07:32:06;;;;;;;;;3.00;3.00;;;;;11.19;60.48;99065.97;5036163;28;45441;-64
2022/04/08 07:34:32;;;;;;;;;5.67;4.67;;;;;11.20;60.61;99065.03;5034929;28;45610;-64
2022/04/08 07:36:57;;;;;;;;;6.00;4.33;;;;;11.18;60.80;99063.44;5035842;28;53082;-64
2022/04/08 07:39:22;;;;;;;;;4.00;3.00;;;;;11.14;61.11;99057.50;5036258;28;45494;-65
2022/04/08 07:41:47;;;;;;;;;5.00;5.00;;;;;11.16;61.73;99049.53;5036138;28;45375;-63
2022/04/08 07:44:13;;;;;;;;;2.33;2.33;;;;;11.09;60.95;99024.53;5036107;28;45417;-64
2022/04/08 07:46:39;;;;;;;;;3.00;3.00;;;;;10.98;61.40;98991.84;5035910;28;46127;-64
2022/04/08 07:49:04;;;;;;;;;3.00;3.00;;;;;11.08;61.77;99015.81;5035976;28;46035;-64
2022/04/08 07:51:29;;;;;;;;;3.67;3.67;;;;;11.04;61.99;99015.16;5035911;28;45438;-64
2022/04/08 07:53:55;;;;;;;;;7.67;2.00;;;;;10.96;62.39;98996.38;5035920;28;45642;-64
2022/04/08 07:56:20;;;;;;;;;4.33;2.33;;;;;10.95;61.26;98996.47;5035487;28;45421;-64
2022/04/08 07:58:47;;;;;;;;;3.33;3.33;;;;;10.97;61.26;99007.75;5035479;28;45381;-63
2022/04/08 08:01:13;;;;;;;;;1.00;1.00;;;;;10.91;61.22;99003.72;5035956;28;45363;-64
2022/04/08 08:03:38;;;;;;;;;4.00;4.00;;;;;10.83;61.31;98996.28;5035736;28;45569;-64
2022/04/08 08:06:04;;;;;;;;;2.67;2.67;;;;;10.81;61.42;98994.69;5035579;28;46392;-63
2022/04/08 08:08:29;;;;;;;;;2.00;2.00;;;;;10.79;61.92;98986.06;5035500;28;45514;-63
2022/04/08 08:10:55;;;;;;;;;2.00;2.00;;;;;10.72;61.86;98967.19;5035664;28;45419;-64
2022/04/08 08:13:21;;;;;;;;;3.00;2.67;;;;;10.75;62.32;98953.84;5035549;28;45566;-64
2022/04/08 08:15:46;;;;;;;;;3.33;3.00;;;;;10.72;62.51;98948.78;5035349;28;46095;-64
2022/04/08 08:18:12;;;;;;;;;2.00;2.00;;;;;10.71;62.41;98949.72;5035442;28;45442;-64
2022/04/08 08:20:38;;;;;;;;;4.33;4.33;;;;;10.69;62.92;98951.59;5035628;28;45487;-64
2022/04/08 08:23:03;;;;;;;;;3.00;3.00;;;;;10.73;63.24;98944.38;5035315;28;45550;-63
2022/04/08 08:25:29;;;;;;;;;2.00;2.00;;;;;10.76;62.71;98941.53;5035338;28;45977;-65
2022/04/08 08:27:59;;;;;;;;;2.67;2.67;;;;;10.77;62.91;98923.06;5035429;28;45379;-64
2022/04/08 08:30:27;;;;;;;;;2.33;1.00;;;;;10.71;62.18;98915.53;5035109;28;45550;-64
2022/04/08 08:32:53;;;;;;;;;8.67;3.00;;;;;10.74;61.99;98925.84;5035316;28;45642;-64
2022/04/08 08:35:19;;;;;;;;;2.00;2.00;;;;;10.71;61.84;98919.94;5034991;28;45455;-64
2022/04/08 08:37:46;;;;;;;;;2.00;2.00;;;;;10.64;62.24;98906.34;5034893;28;45390;-64
2022/04/08 08:40:13;;;;;;;;;4.00;3.00;;;;;10.58;61.90;98914.59;5035049;28;45396;-65
2022/04/08 08:42:39;;;;;;;;;3.33;3.33;;;;;10.50;62.08;98896.69;5035196;28;45380;-63
2022/04/08 08:45:07;;;;;;;;;4.33;4.33;;;;;10.44;62.26;98897.06;5034824;28;46244;-64
2022/04/08 08:47:32;;;;;;;;;3.67;3.67;;;;;10.38;62.57;98895.66;5034805;28;45478;-65
2022/04/08 08:49:58;;;;;;;;;5.00;5.00;;;;;10.32;62.91;98896.06;5035032;28;45438;-64
2022/04/08 08:52:24;;;;;;;;;4.33;4.00;;;;;10.26;63.15;98888.53;5034978;28;45551;-64
2022/04/08 08:54:49;;;;;;;;;6.33;6.33;;;;;10.26;63.50;98880.66;5034830;28;45465;-64
2022/04/08 08:57:19;;;;;;;;;3.00;2.67;;;;;10.31;63.06;98883.84;5034805;28;45349;-64
2022/04/08 08:59:46;;;;;;;;;4.00;4.00;;;;;10.30;63.66;98863.78;5034859;28;45510;-64
2022/04/08 09:02:21;;;;;;;;;3.00;1.00;;;;;10.28;63.08;98843.78;5034630;28;45536;-63
2022/04/08 09:04:49;;;;;;;;;2.33;0.67;;;;;10.22;63.15;98841.50;5034683;28;46387;-64
2022/04/08 09:07:40;;;;;;;;;3.00;1.33;;;;;10.24;63.06;98839.66;5034426;28;45463;-64
2022/04/08 09:10:07;;;;;;;;;7.67;3.67;;;;;10.21;62.98;98835.41;5032549;28;45623;-64
2022/04/08 09:12:32;;;;;;;;;2.00;2.00;;;;;10.16;62.53;98817.31;5034733;28;45410;-63
2022/04/08 09:14:59;;;;;;;;;2.00;2.00;;;;;10.13;62.88;98812.25;5034497;28;45482;-64
2022/04/08 09:17:26;;;;;;;;;1.67;1.67;;;;;10.09;63.02;98810.75;5033284;28;46193;-64
2022/04/08 09:19:56;;;;;;;;;3.00;3.00;;;;;10.07;63.03;98801.25;5034764;28;45378;-64
2022/04/08 09:22:27;;;;;;;;;4.00;3.00;;;;;10.02;63.69;98792.81;5034476;28;45446;-62
2022/04/08 09:24:52;;;;;;;;;2.00;2.00;;;;;9.99;63.05;98790.41;5036563;28;46111;-63
2022/04/08 09:27:18;;;;;;;;;6.00;4.00;;;;;9.87;63.43;98774.47;5036631;28;45622;-64
2022/04/08 09:29:44;;;;;;;;;7.33;6.00;;;;;9.92;63.97;98784.69;5038204;28;45505;-64
2022/04/08 09:32:14;;;;;;;;;4.00;4.00;;;;;9.94;64.40;98775.78;5038256;28;45489;-64
2022/04/08 09:34:42;;;;;;;;;4.00;4.00;;;;;9.96;63.87;98779.13;5037979;28;45434;-64
2022/04/08 09:37:11;;;;;;;;;2.67;2.67;;;;;9.94;63.62;98788.91;5037970;28;45383;-63
2022/04/08 09:39:58;;;;;;;;;3.67;2.67;;;;;9.85;64.23;98797.34;5037978;28;45477;-64
2022/04/08 09:42:25;;;;;;;;;2.00;1.00;;;;;9.81;64.24;98806.34;5035976;28;45532;-64
2022/04/08 09:44:51;;;;;;;;;13.25;11.00;;;;;9.88;64.18;98804.19;5037501;28;45426;-64
2022/04/08 09:47:16;;;;;;;;;2.67;2.67;;;;;9.93;63.85;98816.09;5037647;28;45459;-64
2022/04/08 09:49:42;;;;;;;;;1.00;1.00;;;;;9.95;63.37;98823.88;5037670;28;45427;-63
2022/04/08 09:52:09;;;;;;;;;2.00;2.00;;;;;9.93;63.85;98805.59;5037894;28;45463;-64
2022/04/08 09:54:37;;;;;;;;;1.00;1.00;;;;;9.94;63.80;98809.91;5037800;28;45596;-64
2022/04/08 09:57:06;;;;;;;;;1.00;1.00;;;;;9.97;64.14;98819.41;5036104;28;45463;-64
2022/04/08 09:59:36;;;;;;;;;3.67;2.67;;;;;10.02;64.08;98812.06;5037289;28;45454;-65
2022/04/08 10:02:03;;;;;;;;;1.00;1.00;;;;;10.08;63.98;98802.97;5037574;28;45520;-63
2022/04/08 10:04:28;;;;;;;;;2.00;2.00;;;;;10.10;63.70;98787.94;5037378;28;45565;-63
2022/04/08 10:06:55;;;;;;;;;1.33;1.33;;;;;10.13;63.37;98785.16;5037063;28;45515;-63
2022/04/08 10:09:25;;;;;;;;;3.00;3.00;;;;;10.13;63.58;98764.97;5037567;28;45482;-64
2022/04/08 10:11:57;;;;;;;;;3.00;3.00;;;;;10.15;64.12;98783.25;5037000;28;45422;-64
2022/04/08 10:14:30;;;;;;;;;5.33;3.00;;;;;10.12;63.64;98810.53;5036649;28;46129;-64
2022/04/08 10:16:57;;;;;;;;;2.00;2.00;;;;;10.06;63.36;98821.44;5036634;28;45518;-63
2022/04/08 10:19:23;;;;;;;;;2.00;2.00;;;;;9.95;63.85;98777.47;5036772;28;45387;-64
2022/04/08 10:21:52;;;;;;;;;3.33;3.33;;;;;10.01;63.65;98813.00;5036634;28;45410;-64
2022/04/08 10:24:25;;;;;;;;;5.33;3.67;;;;;10.02;63.80;98796.31;5036790;28;45461;-64
2022/04/08 10:27:01;;;;;;;;;5.33;3.00;;;;;10.01;63.39;98760.47;5036562;28;45504;-63
2022/04/08 10:29:27;;;;;;;;;4.67;3.00;;;;;10.09;62.76;98762.63;5036548;28;45464;-64
2022/04/08 10:32:02;;;;;;;;;4.00;2.33;;;;;10.14;63.35;98764.00;5036782;28;45471;-64
2022/04/08 10:34:32;;;;;;;;;2.33;2.33;;;;;10.17;63.33;98768.25;5036654;28;46208;-64
2022/04/08 10:36:58;;;;;;;;;1.67;1.67;;;;;10.24;63.48;98763.44;5036533;28;45538;-64
2022/04/08 10:39:23;;;;;;;;;5.00;3.00;;;;;10.28;63.33;98757.06;5036608;28;45421;-64
2022/04/08 10:41:54;;;;;;;;;3.00;3.00;;;;;10.32;62.78;98729.69;5036912;28;45476;-64
2022/04/08 10:44:36;;;;;;;;;1.00;1.00;;;;;10.35;62.58;98717.19;5036581;28;45407;-63
2022/04/08 10:47:10;;;;;;;;;10.33;8.00;;;;;10.30;62.11;98695.63;5036569;28;45499;-64
2022/04/08 10:49:49;;;;;;;;;2.00;2.00;;;;;10.19;62.25;98674.41;5036764;28;45384;-65
2022/04/08 10:52:16;;;;;;;;;2.00;2.00;;;;;10.07;62.43;98662.91;5036678;28;45523;-64
2022/04/08 10:54:42;;;;;;;;;1.67;1.00;;;;;10.00;63.05;98674.75;5036623;28;45434;-65
2022/04/08 10:57:07;;;;;;;;;8.67;8.67;;;;;9.97;63.31;98669.72;5036298;28;45584;-63
2022/04/08 10:59:33;;;;;;;;;3.33;3.33;;;;;9.97;63.33;98669.72;5036321;28;45438;-62
2022/04/08 11:02:02;;;;;;;;;6.25;6.25;;;;;9.97;64.17;98685.47;5036589;28;45621;-65
2022/04/08 11:04:29;;;;;;;;;6.75;6.75;;;;;10.01;64.67;98675.59;5036343;28;45516;-63
2022/04/08 11:06:55;;;;;;;;;3.33;3.33;;;;;10.08;64.32;98672.47;5036287;28;45487;-63
2022/04/08 11:09:21;;;;;;;;;8.33;8.33;;;;;10.09;64.83;98731.94;5036628;28;45311;-66
2022/04/08 11:11:52;;;;;;;;;9.33;5.00;;;;;10.09;64.51;98704.84;5036374;28;45666;-64
2022/04/08 11:14:17;;;;;;;;;7.75;7.00;;;;;10.12;64.87;98715.97;5034562;28;45491;-63
2022/04/08 11:16:43;;;;;;;;;6.33;6.33;;;;;10.18;64.18;98709.50;5036012;28;45485;-64
2022/04/08 11:19:11;;;;;;;;;5.33;5.33;;;;;10.21;64.54;98703.19;5036262;28;45441;-64
2022/04/08 11:21:38;;;;;;;;;5.00;5.00;;;;;10.33;64.54;98689.31;5036259;28;45569;-63
2022/04/08 11:24:09;;;;;;;;;14.25;13.50;;;;;10.43;64.13;98700.91;5034375;28;46170;-64
2022/04/08 11:26:45;;;;;;;;;5.00;5.00;;;;;10.50;64.47;98707.44;5034461;28;45507;-65
2022/04/08 11:29:22;;;;;;;;;5.00;5.00;;;;;10.56;63.79;98707.06;5036028;28;45427;-64
2022/04/08 11:31:48;;;;;;;;;6.33;6.33;;;;;10.58;63.92;98706.94;5035923;28;45438;-64